ETH727 LFML-HAAB
Flight info
| Callsign | ETH727 |
|---|---|
| Flight time | N/A |
| Altitude | 39000 |
| Route | TINOT M731 BATIV DCT PELOS DCT IPROM DCT ADAMI DCT ADEXI DCT OLLEK DCT ARLOS/N0478F410 DCT SALUN N705 BOPIX N710 TAKRI P751 PSD/N0479F400 DCT KSL DCT ALRAP/N0478F410 UT124 AMUDO AMUDO1A |
| Aircraft | A359/H-SDE2E3GHIJ3J4J5LM1ORWXY/LB1D1 |
Departure
| Time | 2026-05-05 07:29 |
|---|---|
| Airport | Marseille Provence Airport (LFML) |
Arrival
| Time | N/A |
|---|---|
| Airport | Addis Ababa Bole International Airport (HAAB) |
| Time | Latitude | Longitude | Altitude | Speed | Heading |
|---|---|---|---|---|---|
| 2026-05-05 07:11 | 43.44157 | 5.21901 | 43 ft | 0 kts | 64° |
| 2026-05-05 07:19 | 43.44150 | 5.21883 | 43 ft | 4 kts | 46° |
| 2026-05-05 07:20 | 43.44129 | 5.21866 | 40 ft | 4 kts | 2° |
| 2026-05-05 07:20 | 43.44105 | 5.21874 | 40 ft | 4 kts | 319° |
| 2026-05-05 07:20 | 43.44098 | 5.21883 | 41 ft | 0 kts | 314° |
| 2026-05-05 07:22 | 43.44099 | 5.21881 | 41 ft | 1 kts | 314° |
| 2026-05-05 07:23 | 43.44110 | 5.21843 | 41 ft | 8 kts | 275° |
| 2026-05-05 07:23 | 43.44073 | 5.21760 | 43 ft | 12 kts | 227° |
| 2026-05-05 07:23 | 43.44009 | 5.21672 | 47 ft | 12 kts | 223° |
| 2026-05-05 07:23 | 43.43942 | 5.21585 | 42 ft | 16 kts | 224° |
| 2026-05-05 07:24 | 43.43953 | 5.21442 | 35 ft | 18 kts | 312° |
| 2026-05-05 07:24 | 43.44049 | 5.21303 | 32 ft | 22 kts | 314° |
| 2026-05-05 07:24 | 43.44160 | 5.21144 | 29 ft | 24 kts | 314° |
| 2026-05-05 07:24 | 43.44276 | 5.20960 | 26 ft | 27 kts | 301° |
| 2026-05-05 07:25 | 43.44388 | 5.20752 | 30 ft | 28 kts | 313° |
| 2026-05-05 07:25 | 43.44525 | 5.20557 | 27 ft | 29 kts | 314° |
| 2026-05-05 07:25 | 43.44666 | 5.20355 | 26 ft | 30 kts | 314° |
| 2026-05-05 07:25 | 43.44816 | 5.20142 | 26 ft | 31 kts | 314° |
| 2026-05-05 07:26 | 43.44919 | 5.19995 | 24 ft | 9 kts | 314° |
| 2026-05-05 07:26 | 43.44930 | 5.19979 | 24 ft | 1 kts | 314° |
| 2026-05-05 07:26 | 43.44937 | 5.19969 | 26 ft | 2 kts | 314° |
| 2026-05-05 07:26 | 43.44952 | 5.19948 | 24 ft | 6 kts | 314° |
| 2026-05-05 07:27 | 43.44981 | 5.19876 | 24 ft | 9 kts | 274° |
| 2026-05-05 07:27 | 43.44948 | 5.19800 | 24 ft | 10 kts | 217° |
| 2026-05-05 07:27 | 43.44886 | 5.19786 | 24 ft | 8 kts | 168° |
| 2026-05-05 07:27 | 43.44860 | 5.19811 | 24 ft | 0 kts | 134° |
| 2026-05-05 07:28 | 43.44860 | 5.19812 | 24 ft | 2 kts | 134° |
| 2026-05-05 07:28 | 43.44709 | 5.20027 | 26 ft | 66 kts | 134° |
| 2026-05-05 07:28 | 43.44237 | 5.20696 | 31 ft | 127 kts | 134° |
| 2026-05-05 07:29 | 43.43520 | 5.21743 | 236 ft | 160 kts | 135° |
| 2026-05-05 07:29 | 43.42731 | 5.22742 | 1047 ft | 150 kts | 147° |
| 2026-05-05 07:29 | 43.41789 | 5.23309 | 1672 ft | 148 kts | 158° |
| 2026-05-05 07:29 | 43.40848 | 5.23981 | 1923 ft | 163 kts | 147° |
| 2026-05-05 07:30 | 43.39856 | 5.24939 | 2113 ft | 185 kts | 146° |
| 2026-05-05 07:30 | 43.37485 | 5.27196 | 2543 ft | 228 kts | 147° |
| 2026-05-05 07:30 | 43.36136 | 5.28434 | 2887 ft | 243 kts | 148° |
| 2026-05-05 07:31 | 43.34702 | 5.29736 | 3456 ft | 249 kts | 149° |
| 2026-05-05 07:31 | 43.33226 | 5.31066 | 3962 ft | 258 kts | 149° |
| 2026-05-05 07:31 | 43.31661 | 5.32314 | 4518 ft | 262 kts | 159° |
| 2026-05-05 07:31 | 43.29892 | 5.32861 | 5094 ft | 259 kts | 180° |
| 2026-05-05 07:32 | 43.28095 | 5.32937 | 5773 ft | 259 kts | 182° |
| 2026-05-05 07:32 | 43.26268 | 5.32957 | 6345 ft | 264 kts | 183° |
| 2026-05-05 07:32 | 43.24433 | 5.32984 | 7001 ft | 264 kts | 183° |
| 2026-05-05 07:32 | 43.22612 | 5.33018 | 7606 ft | 266 kts | 183° |
| 2026-05-05 07:33 | 43.20744 | 5.33056 | 8236 ft | 268 kts | 183° |
| 2026-05-05 07:33 | 43.18868 | 5.33094 | 8804 ft | 272 kts | 182° |
| 2026-05-05 07:33 | 43.16979 | 5.33138 | 9416 ft | 274 kts | 183° |
| 2026-05-05 07:33 | 43.15069 | 5.33183 | 10052 ft | 276 kts | 182° |
| 2026-05-05 07:34 | 43.13099 | 5.33226 | 10342 ft | 289 kts | 182° |
| 2026-05-05 07:34 | 43.11027 | 5.33271 | 10583 ft | 304 kts | 182° |
| 2026-05-05 07:34 | 43.08863 | 5.33321 | 10820 ft | 318 kts | 182° |
| 2026-05-05 07:34 | 43.06612 | 5.33374 | 11110 ft | 328 kts | 182° |
| 2026-05-05 07:35 | 43.04339 | 5.33424 | 11561 ft | 333 kts | 182° |